Time;durP1;ratioP1;P1;durP2;ratioP2;P2;SDS_P1;SDS_P2;PMS_P1;PMS_P2;Temp;Humidity;BMP_temperature;BMP_pressure;BME280_temperature;BME280_humidity;BME280_pressure;Samples;Min_cycle;Max_cycle;Signal;HPM_P1;HPM_P2
2023/01/01 00:03:14;;;;;;;20.70;11.60;;;;;;;10.30;86.19;98994.87;213424;1315;25376;-76
2023/01/01 00:08:15;;;;;;;19.30;11.10;;;;;;;10.22;86.21;98983.09;213099;1314;25355;-75
2023/01/01 00:13:23;;;;;;;17.20;10.10;;;;;;;10.09;86.21;98984.70;213160;1302;22696;-75
2023/01/01 00:18:24;;;;;;;23.00;12.10;;;;;;;9.97;86.45;98983.92;213366;1315;22477;-76
2023/01/01 00:23:26;;;;;;;22.80;12.50;;;;;;;9.85;86.55;98975.50;213259;1315;22832;-75
2023/01/01 00:28:28;;;;;;;23.20;12.50;;;;;;;9.69;86.62;98979.45;213473;1315;22641;-76
2023/01/01 00:33:30;;;;;;;20.40;11.70;;;;;;;9.52;86.85;98986.45;213346;1315;22500;-75
2023/01/01 00:38:32;;;;;;;24.20;11.70;;;;;;;9.38;87.21;98984.98;213223;1314;25428;-76
2023/01/01 00:43:34;;;;;;;20.90;11.30;;;;;;;9.26;87.46;98986.73;213372;1315;22519;-75
2023/01/01 00:48:41;;;;;;;22.10;12.30;;;;;;;9.13;87.54;98970.48;213225;1314;22573;-75
2023/01/01 00:53:42;;;;;;;26.50;12.60;;;;;;;9.04;87.81;98974.53;213275;1315;22483;-76
2023/01/01 00:58:44;;;;;;;24.90;13.40;;;;;;;8.98;88.05;98991.72;213407;1315;22863;-76
2023/01/01 01:04:03;;;;;;;20.30;11.10;;;;;;;8.95;88.37;99000.75;213481;1312;22491;-74
2023/01/01 01:09:06;;;;;;;20.30;11.10;;;;;;;8.97;88.66;99008.55;213270;1314;24263;-75
2023/01/01 01:14:08;;;;;;;17.80;9.70;;;;;;;9.11;88.96;99001.02;213091;1315;22477;-75
2023/01/01 01:19:14;;;;;;;16.10;8.20;;;;;;;9.24;88.74;99000.75;213343;1315;22519;-75
2023/01/01 01:24:16;;;;;;;15.90;8.10;;;;;;;9.41;88.89;99003.03;213303;1315;23946;-75
2023/01/01 01:29:18;;;;;;;10.40;5.80;;;;;;;9.64;88.68;99006.08;213247;1315;22504;-75
2023/01/01 01:34:20;;;;;;;11.20;5.50;;;;;;;9.93;88.12;98998.14;213222;1315;24098;-75
2023/01/01 01:39:28;;;;;;;8.00;4.20;;;;;;;10.15;87.66;98991.77;213192;1315;23889;-75
2023/01/01 01:44:46;;;;;;;7.90;4.20;;;;;;;10.35;86.61;98992.10;213450;1315;26384;-75
2023/01/01 01:49:53;;;;;;;6.60;4.50;;;;;;;10.53;85.68;98996.41;213353;1315;22483;-75
2023/01/01 01:54:56;;;;;;;7.40;4.30;;;;;;;10.61;85.07;98985.62;213531;1315;22993;-77
2023/01/01 02:00:00;;;;;;;7.50;4.00;;;;;;;10.62;85.03;98987.31;213411;1308;22582;-75
2023/01/01 02:05:10;;;;;;;5.60;3.80;;;;;;;10.58;84.76;98986.56;213433;1315;24711;-76
2023/01/01 02:10:12;;;;;;;7.60;4.10;;;;;;;10.53;85.09;98989.28;213327;1315;22523;-76
2023/01/01 02:15:14;;;;;;;5.90;3.90;;;;;;;10.42;85.27;98993.02;213246;1315;24335;-75
2023/01/01 02:20:54;;;;;;;7.40;4.40;;;;;;;10.26;85.28;98995.22;213397;1315;25356;-75
2023/01/01 02:26:05;;;;;;;7.70;4.30;;;;;;;10.08;85.50;98994.49;213041;1315;22572;-75
2023/01/01 02:31:10;;;;;;;7.40;4.90;;;;;;;9.94;85.75;98991.60;213441;1315;22735;-76
2023/01/01 02:36:13;;;;;;;8.60;4.50;;;;;;;9.81;85.76;98992.43;213506;1312;22453;-76
2023/01/01 02:41:28;;;;;;;8.80;4.60;;;;;;;9.68;86.00;98997.45;213383;1314;24373;-75
2023/01/01 02:46:32;;;;;;;9.40;4.90;;;;;;;9.57;86.38;99001.94;213359;1293;25510;-76
2023/01/01 02:51:44;;;;;;;9.40;5.70;;;;;;;9.56;86.40;99004.95;213209;1315;25384;-75
2023/01/01 02:57:02;;;;;;;8.90;4.90;;;;;;;9.53;86.76;99006.89;213265;1315;25277;-75
2023/01/01 03:02:29;;;;;;;11.50;5.60;;;;;;;9.47;86.70;99010.77;213498;1311;22534;-76
2023/01/01 03:07:40;;;;;;;11.40;6.10;;;;;;;9.39;86.92;99005.88;213521;1315;22475;-75
2023/01/01 03:12:59;;;;;;;8.70;4.60;;;;;;;9.32;87.12;99000.89;213041;1315;22484;-75
2023/01/01 03:18:12;;;;;;;7.40;4.30;;;;;;;9.26;87.14;98996.64;213351;1314;22527;-75
2023/01/01 03:23:23;;;;;;;9.60;5.10;;;;;;;9.19;87.29;99008.21;213156;1315;22587;-75
2023/01/01 03:28:34;;;;;;;11.10;5.80;;;;;;;9.18;87.58;99003.20;213188;1313;22483;-75
2023/01/01 03:33:42;;;;;;;11.90;6.20;;;;;;;9.21;87.64;99000.50;213289;1315;22928;-75
2023/01/01 03:38:51;;;;;;;13.10;6.60;;;;;;;9.20;87.76;99006.97;213253;1310;22475;-75
2023/01/01 03:44:02;;;;;;;11.10;6.70;;;;;;;9.24;87.78;99011.77;213130;1314;22473;-75
2023/01/01 03:49:06;;;;;;;11.40;6.50;;;;;;;9.34;88.01;99005.04;213324;1315;22633;-75
2023/01/01 03:54:43;;;;;;;9.30;6.50;;;;;;;9.43;87.93;98999.44;213503;1314;22521;-76
2023/01/01 04:00:13;;;;;;;10.50;6.00;;;;;;;9.46;87.93;98990.39;212971;1315;26377;-75
2023/01/01 04:05:17;;;;;;;;;;;;;;;9.50;87.90;98987.54;213344;1315;23253;-75
2023/01/01 04:10:19;;;;;;;9.00;6.00;;;;;;;9.51;87.91;99003.95;213523;1315;22472;-75
2023/01/01 04:15:24;;;;;;;11.70;6.00;;;;;;;9.54;87.82;98998.48;213365;1310;22611;-76
2023/01/01 04:20:27;;;;;;;11.40;6.20;;;;;;;9.59;88.01;99005.84;213588;1315;22462;-74
2023/01/01 04:25:29;;;;;;;11.10;5.70;;;;;;;9.68;87.94;99007.29;213201;1315;22510;-75
2023/01/01 04:30:31;;;;;;;8.70;5.40;;;;;;;9.78;87.91;99003.80;213226;1315;24113;-75
2023/01/01 04:35:33;;;;;;;9.90;5.30;;;;;;;9.89;87.50;99000.36;213325;1314;22645;-75
2023/01/01 04:40:35;;;;;;;9.00;5.20;;;;;;;9.99;87.55;99018.16;213342;1314;25323;-75
2023/01/01 04:45:36;;;;;;;8.90;5.40;;;;;;;10.04;87.35;99028.09;213272;1315;22499;-74
2023/01/01 04:50:38;;;;;;;7.50;4.30;;;;;;;10.06;87.05;99034.83;213088;1314;22477;-75
2023/01/01 04:55:40;;;;;;;8.20;4.50;;;;;;;10.09;86.88;99033.41;213491;1315;24326;-75
2023/01/01 05:00:42;;;;;;;5.70;3.90;;;;;;;10.16;86.50;99050.23;213486;1315;25302;-75
2023/01/01 05:05:44;;;;;;;6.70;4.00;;;;;;;10.25;86.31;99046.10;213476;1315;22548;-75
2023/01/01 05:10:52;;;;;;;7.00;4.00;;;;;;;10.33;85.78;99040.20;213299;1315;23741;-75
2023/01/01 05:15:54;;;;;;;5.00;3.30;;;;;;;10.56;85.20;99037.84;213232;1315;22588;-75
2023/01/01 05:21:17;;;;;;;6.70;3.50;;;;;;;10.75;84.81;99037.02;213415;1315;23832;-75
2023/01/01 05:26:22;;;;;;;6.50;3.40;;;;;;;10.90;84.06;99046.90;213658;1314;25368;-75
2023/01/01 05:31:27;;;;;;;4.90;3.00;;;;;;;11.08;82.75;99048.75;213137;1315;22490;-75
2023/01/01 05:36:32;;;;;;;4.30;2.70;;;;;;;11.20;82.04;99051.84;213158;1313;22486;-75
2023/01/01 05:41:35;;;;;;;5.20;3.10;;;;;;;11.23;81.61;99047.36;213351;1315;22490;-75
2023/01/01 05:46:38;;;;;;;4.90;2.90;;;;;;;11.19;81.48;99047.98;213306;1315;25413;-75
2023/01/01 05:51:40;;;;;;;6.60;3.40;;;;;;;11.12;81.57;99050.38;213214;1315;24436;-75
2023/01/01 05:56:41;;;;;;;4.70;3.00;;;;;;;11.04;82.03;99056.40;213068;1315;25365;-73
2023/01/01 06:01:42;;;;;;;5.80;3.30;;;;;;;10.98;82.33;99060.98;213513;1315;23002;-75
2023/01/01 06:06:47;;;;;;;7.70;3.50;;;;;;;10.92;81.77;99069.13;213410;1315;22480;-75
2023/01/01 06:11:48;;;;;;;5.50;3.30;;;;;;;10.91;81.67;99076.00;213412;1310;22603;-74
2023/01/01 06:16:50;;;;;;;5.10;3.00;;;;;;;10.87;81.86;99080.86;213530;1315;22495;-75
2023/01/01 06:21:52;;;;;;;4.50;3.00;;;;;;;10.83;81.95;99084.48;213328;1314;24415;-76
2023/01/01 06:26:54;;;;;;;5.20;3.20;;;;;;;10.82;81.83;99095.65;213386;1315;22493;-75
2023/01/01 06:31:55;;;;;;;5.30;2.90;;;;;;;10.81;82.03;99097.36;213308;1315;25453;-75
2023/01/01 06:36:57;;;;;;;3.90;3.00;;;;;;;10.81;82.05;99100.86;213387;1315;24591;-75
2023/01/01 06:42:07;;;;;;;4.50;3.00;;;;;;;10.81;82.13;99106.11;213458;1315;22475;-74
2023/01/01 06:47:09;;;;;;;4.70;2.90;;;;;;;10.84;82.35;99117.98;213268;1315;23737;-75
2023/01/01 06:52:10;;;;;;;4.70;3.20;;;;;;;10.90;82.19;99122.75;213194;1315;22549;-74
2023/01/01 06:57:12;;;;;;;4.90;2.60;;;;;;;10.92;82.03;99125.69;213233;1315;22554;-75
2023/01/01 07:02:14;;;;;;;5.50;3.30;;;;;;;10.89;81.89;99122.13;213279;1315;22592;-75
2023/01/01 07:07:16;;;;;;;4.30;3.20;;;;;;;10.82;82.01;99134.50;213025;1314;22624;-75
2023/01/01 07:12:18;;;;;;;5.80;3.80;;;;;;;10.75;82.03;99153.11;213312;1314;22484;-75
2023/01/01 07:17:20;;;;;;;5.90;3.20;;;;;;;10.67;82.03;99173.69;213275;1315;22482;-75
2023/01/01 07:22:22;;;;;;;5.90;3.00;;;;;;;10.58;82.42;99174.83;213470;1315;22421;-75
2023/01/01 07:27:24;;;;;;;5.70;3.50;;;;;;;10.45;82.44;99179.52;213408;1314;23030;-74
2023/01/01 07:32:25;;;;;;;6.80;3.80;;;;;;;10.38;82.79;99191.34;213471;1315;23667;-76
2023/01/01 07:37:27;;;;;;;6.60;3.50;;;;;;;10.33;83.03;99191.23;213321;1314;22503;-74
2023/01/01 07:42:29;;;;;;;6.40;3.50;;;;;;;10.26;83.31;99198.38;213306;1315;22501;-74
2023/01/01 07:47:32;;;;;;;6.30;3.10;;;;;;;10.23;83.34;99193.64;213411;1312;23787;-75
2023/01/01 07:54:52;;;;;;;6.40;3.70;;;;;;;10.21;83.76;99203.77;208385;1337;546084;-75
2023/01/01 07:59:54;;;;;;;7.00;3.80;;;;;;;10.17;83.88;99213.52;212217;1318;22509;-75
2023/01/01 08:04:56;;;;;;;7.90;3.80;;;;;;;10.16;84.15;99230.67;212852;1315;93867;-75
2023/01/01 08:09:58;;;;;;;8.60;4.10;;;;;;;10.15;84.10;99225.64;213518;1313;22477;-74
2023/01/01 08:15:00;;;;;;;6.50;3.80;;;;;;;10.13;84.10;99222.65;213497;1313;22606;-75
2023/01/01 08:20:02;;;;;;;5.00;3.50;;;;;;;10.10;84.55;99225.02;213542;1313;24318;-75
2023/01/01 08:25:04;;;;;;;8.50;4.50;;;;;;;10.10;84.70;99222.71;213619;1313;24290;-77
2023/01/01 08:30:07;;;;;;;5.90;3.90;;;;;;;10.09;84.60;99220.58;213407;1313;22506;-76
2023/01/01 08:35:09;;;;;;;8.10;4.40;;;;;;;10.13;84.94;99232.17;214962;1304;22559;-75
2023/01/01 08:40:12;;;;;;;6.00;4.00;;;;;;;10.23;84.85;99232.73;214770;1304;22481;-75
2023/01/01 08:45:15;;;;;;;7.10;4.00;;;;;;;10.39;84.98;99227.64;214875;1280;22480;-76
2023/01/01 08:50:17;;;;;;;8.00;4.40;;;;;;;10.62;84.77;99219.80;214762;1294;24208;-75
2023/01/01 08:55:19;;;;;;;6.20;3.40;;;;;;;10.83;84.62;99218.38;214840;1303;22477;-75
2023/01/01 09:00:20;;;;;;;8.10;3.90;;;;;;;11.05;84.27;99223.20;214842;1304;22530;-76
2023/01/01 09:05:22;;;;;;;6.30;3.80;;;;;;;11.23;84.24;99202.19;214779;1305;22596;-76
2023/01/01 09:10:24;;;;;;;5.70;3.40;;;;;;;11.38;83.55;99207.73;214674;1306;25264;-75
2023/01/01 09:15:26;;;;;;;8.10;3.80;;;;;;;11.54;83.55;99203.25;214691;1306;25345;-76
2023/01/01 09:20:28;;;;;;;4.60;3.60;;;;;;;11.75;83.66;99215.91;214853;1305;22513;-76
2023/01/01 09:25:32;;;;;;;5.00;3.50;;;;;;;11.93;83.14;99228.12;214667;1306;25567;-75
2023/01/01 09:30:35;;;;;;;7.50;3.40;;;;;;;12.08;82.84;99228.67;214653;1305;22474;-76
2023/01/01 09:35:37;;;;;;;11.70;3.70;;;;;;;12.25;82.25;99225.02;214845;1304;25222;-75
2023/01/01 09:41:00;;;;;;;6.70;3.90;;;;;;;12.41;81.60;99234.27;214803;1306;25204;-75
2023/01/01 09:46:07;;;;;;;6.90;3.50;;;;;;;12.58;80.73;99240.48;214489;1305;25458;-75
2023/01/01 09:51:15;;;;;;;5.20;2.70;;;;;;;12.72;79.00;99218.90;214872;1306;22589;-77
2023/01/01 09:56:27;;;;;;;4.70;2.90;;;;;;;12.83;78.50;99208.84;214501;1302;22650;-75
2023/01/01 10:01:34;;;;;;;5.20;2.90;;;;;;;12.96;77.90;99217.48;214757;1302;25451;-76
2023/01/01 10:06:48;;;;;;;4.20;3.10;;;;;;;13.08;77.56;99209.97;214865;1306;23701;-76
2023/01/01 10:12:02;;;;;;;3.40;2.50;;;;;;;13.21;76.48;99221.90;214881;1306;24696;-75
2023/01/01 10:17:31;;;;;;;7.00;3.50;;;;;;;13.35;75.81;99210.17;214897;1306;24293;-75
2023/01/01 10:22:39;;;;;;;6.80;3.50;;;;;;;13.52;75.84;99193.63;214731;1306;25318;-75
2023/01/01 10:28:12;;;;;;;6.10;3.10;;;;;;;13.72;75.80;99187.11;214713;1306;22461;-74
2023/01/01 10:33:14;;;;;;;4.80;2.70;;;;;;;13.95;75.66;99189.41;214599;1306;22469;-74
2023/01/01 10:38:24;;;;;;;4.80;3.00;;;;;;;14.06;74.66;99179.98;214697;1301;22468;-75
2023/01/01 10:43:26;;;;;;;5.50;3.10;;;;;;;13.96;74.16;99191.23;214637;1296;22478;-75
2023/01/01 10:48:30;;;;;;;5.90;3.60;;;;;;;13.83;74.56;99185.52;214573;1306;24329;-76
2023/01/01 10:53:49;;;;;;;5.60;3.20;;;;;;;13.69;74.40;99184.20;214642;1304;24306;-74
2023/01/01 10:58:54;;;;;;;4.50;3.10;;;;;;;13.55;74.45;99175.65;214723;1306;22501;-75
2023/01/01 11:04:12;;;;;;;4.60;3.30;;;;;;;13.46;74.74;99165.92;214445;1306;22475;-75
2023/01/01 11:09:26;;;;;;;5.40;3.10;;;;;;;13.43;75.01;99157.90;214629;1305;23706;-75
2023/01/01 11:14:35;;;;;;;5.20;3.20;;;;;;;13.50;75.60;99160.93;215083;1298;22472;-76
2023/01/01 11:19:40;;;;;;;5.50;3.40;;;;;;;13.63;75.32;99161.11;214886;1305;22425;-75
2023/01/01 11:25:01;;;;;;;5.90;3.30;;;;;;;13.80;75.45;99151.96;214545;1306;22553;-75
2023/01/01 11:30:22;;;;;;;5.80;3.30;;;;;;;13.98;75.00;99159.56;214697;1304;22772;-76
2023/01/01 11:35:26;;;;;;;6.30;3.40;;;;;;;14.20;74.56;99175.06;214770;1305;22946;-74
2023/01/01 11:40:36;;;;;;;6.40;3.60;;;;;;;14.47;73.48;99185.70;214538;1305;24368;-76
2023/01/01 11:45:41;;;;;;;4.90;2.80;;;;;;;14.73;71.58;99177.10;214418;1306;22724;-73
2023/01/01 11:51:04;;;;;;;7.10;3.10;;;;;;;14.96;69.79;99165.79;214755;1305;25313;-75
2023/01/01 11:56:13;;;;;;;6.00;2.60;;;;;;;15.10;69.12;99156.23;214940;1306;23758;-75
2023/01/01 12:01:24;;;;;;;3.60;2.50;;;;;;;15.15;69.24;99146.77;214640;1305;22463;-76
2023/01/01 12:06:46;;;;;;;4.30;2.50;;;;;;;15.15;67.97;99149.23;215116;1306;22592;-75
2023/01/01 12:12:28;;;;;;;4.40;2.60;;;;;;;15.14;69.24;99136.06;214555;1306;22458;-75
2023/01/01 12:17:36;;;;;;;3.50;2.40;;;;;;;15.12;68.87;99131.41;214817;1306;24463;-75
2023/01/01 12:22:39;;;;;;;4.50;2.70;;;;;;;15.04;68.20;99145.25;214623;1304;25340;-75
2023/01/01 12:28:27;;;;;;;6.10;2.20;;;;;;;14.96;67.54;99160.52;214650;1306;22463;-75
2023/01/01 12:34:07;;;;;;;4.80;2.50;;;;;;;14.87;67.74;99165.64;214844;1306;22477;-74
2023/01/01 12:39:57;;;;;;;4.30;2.40;;;;;;;14.83;68.69;99164.13;214766;1306;24254;-77
2023/01/01 12:45:11;;;;;;;;;;;;;;;14.79;69.10;99169.29;214706;1305;25564;-76
2023/01/01 12:50:50;;;;;;;3.40;2.60;;;;;;;14.73;68.79;99169.45;214913;1305;22510;-75
2023/01/01 12:56:09;;;;;;;4.70;3.10;;;;;;;14.68;69.68;99184.70;214762;1306;22501;-74
2023/01/01 13:01:26;;;;;;;3.60;2.10;;;;;;;14.65;68.87;99172.96;214709;1306;25233;-75
2023/01/01 13:06:49;;;;;;;3.10;2.00;;;;;;;14.59;69.11;99171.13;214894;1306;22478;-75
2023/01/01 13:12:00;;;;;;;4.90;2.80;;;;;;;14.49;68.80;99183.53;214474;1305;22466;-75
2023/01/01 13:17:02;;;;;;;3.40;2.10;;;;;;;14.33;69.56;99184.06;214840;1306;26065;-74
2023/01/01 13:22:26;;;;;;;3.80;2.70;;;;;;;14.14;70.00;99181.72;214756;1305;22521;-76
2023/01/01 13:27:58;;;;;;;4.50;2.50;;;;;;;13.90;70.18;99179.77;214781;1306;23735;-74
2023/01/01 13:33:14;;;;;;;3.40;2.20;;;;;;;13.72;70.95;99184.43;214774;1306;22593;-76
2023/01/01 13:38:50;;;;;;;5.30;2.80;;;;;;;13.54;71.18;99190.21;214881;1306;25316;-76
2023/01/01 13:44:22;;;;;;;7.00;2.80;;;;;;;13.38;71.82;99204.96;214730;1306;22464;-75
2023/01/01 13:50:01;;;;;;;4.30;2.70;;;;;;;13.25;72.18;99215.77;214796;1306;24376;-74
2023/01/01 13:55:25;;;;;;;4.90;2.90;;;;;;;13.11;72.70;99214.33;214790;1304;22470;-76
2023/01/01 14:00:51;;;;;;;6.20;3.00;;;;;;;13.01;73.06;99215.24;214739;1306;25431;-75
2023/01/01 14:06:02;;;;;;;5.50;3.30;;;;;;;12.92;73.32;99209.52;214878;1305;22597;-75
2023/01/01 14:11:20;;;;;;;5.10;3.00;;;;;;;12.83;73.93;99217.55;214934;1305;22473;-76
2023/01/01 14:16:25;;;;;;;6.90;3.70;;;;;;;12.74;74.32;99226.02;214704;1306;22475;-75
2023/01/01 14:21:33;;;;;;;9.00;3.60;;;;;;;12.69;74.68;99228.72;214619;1306;22583;-76
2023/01/01 14:26:37;;;;;;;6.00;3.90;;;;;;;12.63;74.95;99230.98;214710;1306;25432;-74
2023/01/01 14:31:43;;;;;;;8.80;4.50;;;;;;;12.57;75.18;99234.00;214991;1304;25271;-77
2023/01/01 14:36:53;;;;;;;9.40;4.50;;;;;;;12.52;75.44;99231.92;214965;1306;25394;-75
2023/01/01 14:42:01;;;;;;;7.90;4.10;;;;;;;12.42;75.76;99235.33;214818;1298;22575;-75
2023/01/01 14:47:10;;;;;;;8.90;4.60;;;;;;;12.30;76.18;99242.24;214818;1306;24253;-75
2023/01/01 14:52:23;;;;;;;10.60;4.30;;;;;;;12.21;76.62;99248.28;214643;1306;22457;-74
2023/01/01 14:57:34;;;;;;;11.60;4.80;;;;;;;12.11;77.10;99262.46;214814;1304;22734;-75
2023/01/01 15:02:37;;;;;;;8.90;4.80;;;;;;;12.00;77.41;99266.73;214853;1305;24078;-76
2023/01/01 15:07:39;;;;;;;8.90;4.70;;;;;;;11.90;77.81;99269.23;214733;1306;22803;-74
2023/01/01 15:12:41;;;;;;;9.40;4.80;;;;;;;11.78;78.10;99277.66;214676;1303;22510;-75
2023/01/01 15:17:46;;;;;;;9.70;4.80;;;;;;;11.68;78.46;99288.34;214932;1304;23209;-75
2023/01/01 15:22:49;;;;;;;9.60;5.20;;;;;;;11.57;78.85;99286.08;214876;1306;24276;-75
2023/01/01 15:27:54;;;;;;;8.30;4.70;;;;;;;11.44;79.11;99280.71;214766;1306;22514;-73
2023/01/01 15:33:05;;;;;;;10.40;6.00;;;;;;;11.33;79.62;99275.86;214887;1306;24360;-74
2023/01/01 15:38:25;;;;;;;10.80;5.20;;;;;;;11.25;80.06;99281.62;214863;1306;25362;-75
2023/01/01 15:43:29;;;;;;;10.60;4.90;;;;;;;11.23;80.44;99281.20;214658;1306;22454;-75
2023/01/01 15:48:36;;;;;;;10.60;5.70;;;;;;;11.20;80.74;99284.60;214749;1306;22491;-75
2023/01/01 15:53:47;;;;;;;10.60;6.00;;;;;;;11.18;80.91;99286.70;214889;1306;24214;-76
2023/01/01 15:58:59;;;;;;;10.90;6.30;;;;;;;11.13;80.76;99284.33;214784;1301;22528;-75
2023/01/01 16:04:13;;;;;;;13.70;6.60;;;;;;;11.05;81.13;99277.03;214662;1305;22593;-75
2023/01/01 16:09:16;;;;;;;9.60;5.30;;;;;;;11.00;81.27;99292.35;214920;1306;25170;-75
2023/01/01 16:14:18;;;;;;;9.30;5.60;;;;;;;10.95;81.47;99293.67;214807;1306;25290;-74
2023/01/01 16:19:21;;;;;;;11.80;5.20;;;;;;;10.91;81.73;99296.42;214723;1306;25270;-75
2023/01/01 16:24:23;;;;;;;12.90;6.10;;;;;;;10.91;82.23;99293.11;214876;1306;25210;-75
2023/01/01 16:29:25;;;;;;;10.40;5.30;;;;;;;10.91;82.37;99285.44;214673;1306;25417;-74
2023/01/01 16:34:27;;;;;;;11.30;6.00;;;;;;;10.89;82.52;99279.77;214919;1299;23392;-75
2023/01/01 16:39:29;;;;;;;12.70;6.60;;;;;;;10.85;82.69;99281.13;214915;1306;22485;-75
2023/01/01 16:44:31;;;;;;;11.30;5.60;;;;;;;10.80;83.04;99291.51;214742;1306;22478;-75
2023/01/01 16:49:32;;;;;;;9.50;5.50;;;;;;;10.74;82.98;99299.36;214687;1306;22509;-75
2023/01/01 16:54:35;;;;;;;9.30;5.30;;;;;;;10.65;83.17;99306.86;214743;1304;24824;-75
2023/01/01 16:59:37;;;;;;;11.00;6.80;;;;;;;10.55;83.37;99310.33;214739;1306;22530;-75
2023/01/01 17:04:38;;;;;;;13.70;6.60;;;;;;;10.44;83.65;99318.68;214851;1306;24540;-75
2023/01/01 17:09:41;;;;;;;10.90;6.10;;;;;;;10.35;83.93;99323.84;214843;1307;22498;-75
2023/01/01 17:14:43;;;;;;;11.70;6.90;;;;;;;10.23;83.98;99320.66;214644;1301;22486;-75
2023/01/01 17:19:45;;;;;;;13.10;6.90;;;;;;;10.14;84.35;99321.23;214776;1307;22481;-76
2023/01/01 17:24:47;;;;;;;11.40;6.50;;;;;;;10.08;84.72;99321.60;214807;1306;25407;-75
2023/01/01 17:29:49;;;;;;;13.20;6.60;;;;;;;10.05;85.14;99323.86;214772;1304;22458;-75
2023/01/01 17:34:51;;;;;;;10.60;6.30;;;;;;;10.01;85.43;99320.32;214792;1306;23506;-75
2023/01/01 17:39:55;;;;;;;12.40;7.00;;;;;;;9.97;85.78;99326.61;214795;1309;22520;-76
2023/01/01 17:44:57;;;;;;;15.70;7.30;;;;;;;9.94;86.20;99323.92;214824;1305;22616;-75
2023/01/01 17:49:59;;;;;;;14.40;7.60;;;;;;;9.87;86.06;99329.09;214751;1306;24896;-74
2023/01/01 17:55:02;;;;;;;13.40;7.20;;;;;;;9.77;86.73;99332.03;214691;1312;22933;-74
2023/01/01 18:00:08;;;;;;;15.40;7.30;;;;;;;9.71;86.93;99340.98;214765;1307;25347;-76
2023/01/01 18:05:13;;;;;;;13.40;6.80;;;;;;;9.63;87.25;99352.42;214888;1306;22420;-75
2023/01/01 18:10:14;;;;;;;12.40;7.40;;;;;;;9.58;87.27;99357.45;214827;1296;25283;-75
2023/01/01 18:15:18;;;;;;;12.60;6.40;;;;;;;9.53;87.54;99357.94;214904;1305;24229;-75
2023/01/01 18:20:20;;;;;;;15.00;7.00;;;;;;;9.51;87.76;99362.05;214901;1306;26355;-75
2023/01/01 18:25:22;;;;;;;15.60;8.20;;;;;;;9.50;88.28;99360.02;214947;1306;25226;-74
2023/01/01 18:30:24;;;;;;;13.00;6.90;;;;;;;9.52;88.52;99362.91;214736;1306;22649;-75
2023/01/01 18:35:26;;;;;;;14.30;7.10;;;;;;;9.52;88.30;99368.73;214942;1302;22490;-75
2023/01/01 18:40:32;;;;;;;14.70;7.50;;;;;;;9.48;88.28;99365.73;214857;1306;24504;-75
2023/01/01 18:45:34;;;;;;;14.40;7.70;;;;;;;9.46;88.79;99365.36;214937;1306;22595;-73
2023/01/01 18:50:36;;;;;;;13.90;7.20;;;;;;;9.45;88.69;99371.02;214858;1306;25349;-74
2023/01/01 18:55:38;;;;;;;14.20;7.60;;;;;;;9.42;88.78;99370.23;214811;1306;22467;-75
2023/01/01 19:00:40;;;;;;;13.00;6.20;;;;;;;9.38;88.71;99371.83;214611;1306;22695;-75
2023/01/01 19:05:43;;;;;;;12.10;6.60;;;;;;;9.36;88.68;99370.06;214837;1306;25264;-74
2023/01/01 19:11:15;;;;;;;12.30;6.90;;;;;;;9.31;88.63;99370.52;214796;1306;22467;-75
2023/01/01 19:16:24;;;;;;;11.50;6.60;;;;;;;9.26;88.91;99373.77;214772;1306;22467;-75
2023/01/01 19:21:26;;;;;;;11.50;7.00;;;;;;;9.28;89.03;99382.39;214844;1306;21826;-75
2023/01/01 19:26:34;;;;;;;11.60;6.80;;;;;;;9.24;88.85;99382.98;214828;1306;22566;-74
2023/01/01 19:31:36;;;;;;;14.90;7.70;;;;;;;9.19;88.81;99390.02;214846;1306;24239;-74
2023/01/01 19:36:38;;;;;;;12.80;7.80;;;;;;;9.13;88.72;99392.47;214880;1301;23152;-75
2023/01/01 19:41:40;;;;;;;11.80;6.40;;;;;;;9.02;88.56;99391.70;214915;1306;25323;-75
2023/01/01 19:46:42;;;;;;;15.30;7.50;;;;;;;8.91;88.88;99394.54;214832;1304;24362;-74
2023/01/01 19:51:44;;;;;;;15.30;7.30;;;;;;;8.83;88.96;99395.73;214910;1289;25365;-75
2023/01/01 19:56:48;;;;;;;15.70;7.20;;;;;;;8.73;89.14;99394.46;214833;1301;22518;-74
2023/01/01 20:01:50;;;;;;;11.90;6.20;;;;;;;8.66;89.53;99390.37;214825;1306;22698;-75
2023/01/01 20:07:12;;;;;;;16.20;6.80;;;;;;;8.61;89.77;99388.17;214632;1306;152246;-75
2023/01/01 20:12:14;;;;;;;13.20;6.00;;;;;;;8.58;89.79;99389.11;214875;1301;22458;-75
2023/01/01 20:17:17;;;;;;;16.10;7.70;;;;;;;8.57;89.94;99396.04;214680;1306;24428;-75
2023/01/01 20:22:20;;;;;;;11.70;6.40;;;;;;;8.53;89.98;99399.27;214760;1303;22469;-75
2023/01/01 20:27:25;;;;;;;11.20;5.80;;;;;;;8.52;90.08;99398.44;214661;1305;23076;-75
2023/01/01 20:32:27;;;;;;;11.90;5.80;;;;;;;8.52;90.45;99398.00;214904;1305;22424;-75
2023/01/01 20:37:35;;;;;;;12.50;6.40;;;;;;;8.56;90.38;99402.55;214850;1306;24253;-76
2023/01/01 20:42:38;;;;;;;14.70;6.70;;;;;;;8.58;90.48;99396.73;214620;1306;24457;-74
2023/01/01 20:47:40;;;;;;;13.70;7.30;;;;;;;8.55;90.31;99399.88;214756;1306;23158;-74
2023/01/01 20:52:42;;;;;;;12.60;6.40;;;;;;;8.52;90.52;99395.01;214907;1304;25268;-75
2023/01/01 20:57:44;;;;;;;13.90;6.70;;;;;;;8.50;90.64;99392.97;214801;1306;22546;-75
2023/01/01 21:02:47;;;;;;;12.60;6.10;;;;;;;8.48;90.90;99393.55;214689;1306;25245;-75
2023/01/01 21:07:49;;;;;;;17.30;7.20;;;;;;;8.47;90.85;99400.95;214842;1305;24272;-75
2023/01/01 21:12:51;;;;;;;13.10;6.60;;;;;;;8.42;90.82;99406.09;214755;1305;22597;-74
2023/01/01 21:17:53;;;;;;;12.40;6.30;;;;;;;8.35;90.83;99404.92;214803;1305;25008;-75
2023/01/01 21:22:59;;;;;;;14.50;7.00;;;;;;;8.30;91.19;99404.27;214886;1306;22462;-75
2023/01/01 21:28:01;;;;;;;11.90;6.70;;;;;;;8.31;91.69;99397.05;214840;1306;25251;-75
2023/01/01 21:33:13;;;;;;;14.00;6.80;;;;;;;8.34;92.08;99392.59;214926;1306;22490;-74
2023/01/01 21:38:20;;;;;;;13.80;6.50;;;;;;;8.37;91.97;99399.60;214819;1306;22520;-74
2023/01/01 21:43:22;;;;;;;14.20;7.40;;;;;;;8.36;92.02;99398.89;215043;1306;22466;-74
2023/01/01 21:48:32;;;;;;;13.70;6.70;;;;;;;8.34;91.89;99397.30;214813;1300;22616;-76
2023/01/01 21:53:35;;;;;;;12.50;6.40;;;;;;;8.30;91.86;99401.58;214689;1306;23873;-75
2023/01/01 22:04:08;;;;;;;12.90;6.30;;;;;;;8.22;91.89;99392.61;214772;1306;26167;-75
2023/01/01 22:09:23;;;;;;;9.50;4.90;;;;;;;8.21;92.03;99388.87;214800;1301;22482;-75
2023/01/01 22:14:36;;;;;;;14.10;5.90;;;;;;;8.22;92.30;99392.02;214635;1301;22478;-75
2023/01/01 22:19:38;;;;;;;10.30;5.50;;;;;;;8.23;92.40;99384.08;214823;1305;25256;-75
2023/01/01 22:24:43;;;;;;;10.20;5.50;;;;;;;8.26;92.38;99385.69;214913;1306;22740;-76
2023/01/01 22:29:45;;;;;;;23.20;9.90;;;;;;;8.18;91.93;99390.19;214957;1306;25271;-75
2023/01/01 22:34:49;;;;;;;23.10;12.30;;;;;;;8.04;91.79;99391.11;214738;1305;22500;-76
2023/01/01 22:39:50;;;;;;;22.20;11.30;;;;;;;7.90;91.90;99393.23;215088;1304;25354;-75
2023/01/01 22:44:57;;;;;;;26.20;11.90;;;;;;;7.75;91.94;99387.00;214826;1298;24292;-75
2023/01/01 22:50:01;;;;;;;27.10;12.90;;;;;;;7.61;92.09;99378.02;214996;1306;22535;-75
2023/01/01 22:55:03;;;;;;;25.70;12.30;;;;;;;7.44;91.93;99374.41;214699;1306;22521;-75
2023/01/01 23:00:06;;;;;;;29.10;12.90;;;;;;;7.27;92.00;99363.80;214826;1305;22468;-75
2023/01/01 23:05:09;;;;;;;22.00;11.80;;;;;;;7.15;92.28;99361.29;214849;1305;24331;-74
2023/01/01 23:10:12;;;;;;;26.90;13.10;;;;;;;7.04;92.47;99361.64;214788;1300;23865;-74
2023/01/01 23:20:35;;;;;;;24.30;13.00;;;;;;;6.88;92.90;99360.20;214787;1305;26215;-74
2023/01/01 23:25:37;;;;;;;29.60;14.30;;;;;;;6.79;93.17;99354.83;214555;1306;24390;-75
2023/01/01 23:30:39;;;;;;;30.10;14.30;;;;;;;6.72;93.34;99349.90;214817;1306;22482;-75
2023/01/01 23:35:41;;;;;;;28.20;12.90;;;;;;;6.63;93.20;99339.04;214628;1305;22596;-73
2023/01/01 23:40:43;;;;;;;19.60;9.20;;;;;;;6.56;93.68;99345.98;214768;1306;22504;-75
2023/01/01 23:45:46;;;;;;;12.90;6.60;;;;;;;6.53;94.25;99346.21;214765;1306;22559;-75
2023/01/01 23:50:48;;;;;;;11.80;5.70;;;;;;;6.66;95.55;99342.11;214760;1283;25642;-74
2023/01/01 23:55:50;;;;;;;12.90;5.90;;;;;;;6.85;95.94;99337.48;214479;1305;23354;-75
